Time;durP1;ratioP1;P1;durP2;ratioP2;P2;SDS_P1;SDS_P2;PMS_P1;PMS_P2;Temp;Humidity;BMP_temperature;BMP_pressure;BME280_temperature;BME280_humidity;BME280_pressure;Samples;Min_cycle;Max_cycle;Signal;HPM_P1;HPM_P2
2023/08/05 00:00:41;;;;;;;7.72;5.55;;;;;;;13.68;100.00;101504.63;5057056;28;20033;-76
2023/08/05 00:03:07;;;;;;;7.85;5.57;;;;;;;13.70;100.00;101493.59;5045258;28;20026;-76
2023/08/05 00:05:32;;;;;;;7.63;6.32;;;;;;;13.70;100.00;101497.13;5048442;28;20436;-76
2023/08/05 00:07:58;;;;;;;7.18;6.10;;;;;;;13.73;100.00;101498.59;5062168;28;20058;-76
2023/08/05 00:10:23;;;;;;;6.40;5.80;;;;;;;13.72;100.00;101497.78;5051966;28;20381;-76
2023/08/05 00:12:48;;;;;;;7.13;5.55;;;;;;;13.73;100.00;101495.88;5063573;28;20024;-76
2023/08/05 00:15:14;;;;;;;8.52;5.90;;;;;;;13.75;100.00;101488.41;5046484;28;20040;-75
2023/08/05 00:17:39;;;;;;;10.82;6.30;;;;;;;13.76;100.00;101485.50;5050804;28;20115;-75
2023/08/05 00:20:12;;;;;;;8.85;6.10;;;;;;;13.79;100.00;101482.38;5063926;28;20025;-76
2023/08/05 00:22:40;;;;;;;6.63;5.60;;;;;;;13.82;100.00;101480.31;5061164;28;20025;-75
2023/08/05 00:25:06;;;;;;;6.00;5.38;;;;;;;13.80;100.00;101484.06;5066785;28;20041;-75
2023/08/05 00:27:31;;;;;;;8.60;6.13;;;;;;;13.83;100.00;101479.28;5065953;28;20025;-76
2023/08/05 00:29:59;;;;;;;9.27;6.20;;;;;;;13.82;100.00;101475.75;5062674;28;20445;-76
2023/08/05 00:32:26;;;;;;;10.00;6.53;;;;;;;13.80;100.00;101484.06;5049387;28;20062;-76
2023/08/05 00:34:52;;;;;;;8.27;5.85;;;;;;;13.76;100.00;101471.13;5043879;28;20041;-76
2023/08/05 00:37:17;;;;;;;7.30;6.50;;;;;;;13.68;100.00;101461.34;5044307;28;20032;-75
2023/08/05 00:39:43;;;;;;;8.45;6.15;;;;;;;13.68;100.00;101457.81;5048626;28;20050;-75
2023/08/05 00:42:08;;;;;;;10.50;6.28;;;;;;;13.63;100.00;101451.13;5038462;28;20094;-75
2023/08/05 00:44:33;;;;;;;8.45;6.82;;;;;;;13.66;100.00;101451.75;5038186;28;20493;-76
2023/08/05 00:46:59;;;;;;;8.05;5.88;;;;;;;13.63;100.00;101453.81;5048960;28;20396;-76
2023/08/05 00:49:29;;;;;;;10.20;6.57;;;;;;;13.60;100.00;101458.78;5037585;28;20036;-76
2023/08/05 00:51:55;;;;;;;9.45;7.15;;;;;;;13.56;100.00;101457.53;5052690;28;20025;-75
2023/08/05 00:54:23;;;;;;;9.73;6.40;;;;;;;13.47;100.00;101449.59;5044662;28;20032;-76
2023/08/05 00:56:48;;;;;;;8.68;6.72;;;;;;;13.39;100.00;101436.22;5050640;28;20025;-76
2023/08/05 00:59:14;;;;;;;9.55;6.75;;;;;;;13.30;100.00;101440.13;5042024;28;20033;-76
2023/08/05 01:01:39;;;;;;;8.40;6.90;;;;;;;13.23;100.00;101445.50;5037719;28;20101;-76
2023/08/05 01:04:05;;;;;;;12.20;6.65;;;;;;;13.15;100.00;101443.78;5054424;28;20040;-76
2023/08/05 01:06:31;;;;;;;7.40;6.50;;;;;;;13.06;100.00;101444.97;5049542;28;20029;-76
2023/08/05 01:08:56;;;;;;;8.30;6.40;;;;;;;12.97;100.00;101440.78;5039698;28;20036;-76
2023/08/05 01:11:21;;;;;;;9.38;7.28;;;;;;;12.91;100.00;101441.56;5028848;28;20028;-76
2023/08/05 01:13:47;;;;;;;9.10;7.40;;;;;;;12.82;100.00;101433.63;5051821;28;20056;-76
2023/08/05 01:16:12;;;;;;;11.88;6.78;;;;;;;12.77;100.00;101435.25;5057706;28;20052;-76
2023/08/05 01:18:38;;;;;;;9.85;7.55;;;;;;;12.74;100.00;101441.88;5039406;28;20099;-76
2023/08/05 01:21:03;;;;;;;9.90;6.80;;;;;;;12.79;100.00;101442.13;5050611;28;20045;-76
2023/08/05 01:24:11;;;;;;;8.30;7.32;;;;;;;12.78;100.00;101437.75;5029337;28;20453;-76
2023/08/05 01:26:36;;;;;;;9.55;7.55;;;;;;;12.77;100.00;101436.06;5045247;28;20061;-76
2023/08/05 01:29:03;;;;;;;9.50;7.28;;;;;;;12.81;100.00;101439.19;5024264;28;20034;-76
2023/08/05 01:31:29;;;;;;;9.95;7.53;;;;;;;12.80;100.00;101440.22;5032834;28;20400;-75
2023/08/05 01:33:54;;;;;;;8.40;6.63;;;;;;;12.81;100.00;101436.50;5027753;28;20085;-76
2023/08/05 01:36:20;;;;;;;9.32;7.57;;;;;;;12.82;100.00;101427.38;4997989;28;20033;-75
2023/08/05 01:38:47;;;;;;;9.23;7.25;;;;;;;12.91;100.00;101437.00;5053212;28;20017;-76
2023/08/05 01:41:14;;;;;;;9.30;7.05;;;;;;;12.92;100.00;101435.13;5039098;28;20040;-75
2023/08/05 01:43:39;;;;;;;9.38;6.93;;;;;;;12.87;100.00;101435.72;5018089;28;20036;-77
2023/08/05 01:46:04;;;;;;;11.27;7.63;;;;;;;12.86;100.00;101437.59;5039559;28;20025;-76
2023/08/05 01:48:31;;;;;;;9.95;7.07;;;;;;;12.83;100.00;101429.03;5039011;28;20030;-76
2023/08/05 01:50:56;;;;;;;11.55;7.88;;;;;;;12.81;100.00;101429.25;5049080;28;20029;-75
2023/08/05 01:53:22;;;;;;;9.00;7.47;;;;;;;12.78;100.00;101426.94;5058208;28;20029;-75
2023/08/05 01:55:50;;;;;;;9.70;7.53;;;;;;;12.76;100.00;101418.19;5041859;28;20021;-76
2023/08/05 01:58:15;;;;;;;10.13;7.78;;;;;;;12.74;100.00;101414.84;5049901;28;20112;-76
2023/08/05 02:00:41;;;;;;;10.23;7.53;;;;;;;12.67;100.00;101408.59;5047676;28;20086;-76
2023/08/05 02:03:06;;;;;;;9.25;7.88;;;;;;;12.61;100.00;101409.34;5035080;28;20036;-75
2023/08/05 02:05:32;;;;;;;8.95;7.68;;;;;;;12.57;100.00;101415.16;5043452;28;20020;-75
2023/08/05 02:07:57;;;;;;;10.73;8.48;;;;;;;12.53;100.00;101419.25;5046259;28;20027;-76
2023/08/05 02:10:22;;;;;;;10.65;7.78;;;;;;;12.46;100.00;101415.69;5038160;28;20088;-78
2023/08/05 02:12:48;;;;;;;13.13;8.10;;;;;;;12.42;100.00;101414.41;5048240;28;20384;-77
2023/08/05 02:15:13;;;;;;;10.65;7.70;;;;;;;12.34;100.00;101414.56;5049228;28;20033;-77
2023/08/05 02:17:39;;;;;;;12.00;8.10;;;;;;;12.28;100.00;101414.31;5058870;28;20025;-77
2023/08/05 02:20:05;;;;;;;9.60;7.70;;;;;;;12.23;100.00;101424.84;5056595;28;20037;-77
2023/08/05 02:22:30;;;;;;;9.95;8.05;;;;;;;12.19;100.00;101420.84;5064857;28;20460;-77
2023/08/05 02:24:56;;;;;;;11.93;8.63;;;;;;;12.16;100.00;101425.81;5054679;28;20051;-77
2023/08/05 02:27:21;;;;;;;12.18;9.00;;;;;;;12.11;100.00;101427.22;5049238;28;20044;-77
2023/08/05 02:29:47;;;;;;;10.63;8.45;;;;;;;12.10;100.00;101424.72;5040698;28;20377;-77
2023/08/05 02:32:12;;;;;;;10.98;8.68;;;;;;;12.09;100.00;101428.44;5051561;28;20024;-77
2023/08/05 02:34:37;;;;;;;15.68;9.52;;;;;;;12.15;100.00;101416.03;5063769;28;20057;-77
2023/08/05 02:37:03;;;;;;;11.32;9.02;;;;;;;12.12;100.00;101414.56;5059990;28;20032;-77
2023/08/05 02:39:28;;;;;;;11.82;9.23;;;;;;;12.14;100.00;101409.81;5041944;28;20037;-75
2023/08/05 02:41:54;;;;;;;11.32;9.07;;;;;;;12.13;100.00;101413.56;5056120;28;20023;-75
2023/08/05 02:44:19;;;;;;;11.45;9.00;;;;;;;12.15;100.00;101416.91;5044841;28;20026;-75
2023/08/05 02:46:44;;;;;;;12.02;9.20;;;;;;;12.13;100.00;101419.78;5051010;28;20380;-77
2023/08/05 02:49:10;;;;;;;10.52;8.98;;;;;;;12.13;100.00;101408.97;5058478;28;20037;-76
2023/08/05 02:51:36;;;;;;;11.65;9.23;;;;;;;12.14;100.00;101409.81;5052530;28;20029;-77
2023/08/05 02:54:01;;;;;;;10.63;9.32;;;;;;;12.15;100.00;101407.94;5061892;28;20025;-75
2023/08/05 02:56:27;;;;;;;13.63;9.25;;;;;;;12.16;100.00;101407.78;5054749;28;20090;-75
2023/08/05 02:58:52;;;;;;;12.25;8.90;;;;;;;12.17;100.00;101414.00;5060855;28;20025;-75
2023/08/05 03:01:17;;;;;;;13.30;9.20;;;;;;;12.19;100.00;101412.75;5064049;28;20033;-75
2023/08/05 03:03:46;;;;;;;13.20;9.50;;;;;;;12.20;100.00;101411.72;5050584;28;20028;-76
2023/08/05 03:06:12;;;;;;;11.48;8.90;;;;;;;12.23;100.00;101411.34;5051875;28;20036;-75
2023/08/05 03:08:37;;;;;;;11.50;8.88;;;;;;;12.23;100.00;101408.66;5051866;28;20033;-76
2023/08/05 03:11:02;;;;;;;12.45;9.32;;;;;;;12.24;100.00;101404.91;5055740;28;20047;-76
2023/08/05 03:13:28;;;;;;;13.05;9.98;;;;;;;12.27;100.00;101400.97;5056764;28;20025;-75
2023/08/05 03:15:53;;;;;;;15.15;9.85;;;;;;;12.30;100.00;101407.88;5059961;28;20044;-76
2023/08/05 03:18:19;;;;;;;12.50;9.38;;;;;;;12.32;100.00;101405.81;5040735;28;20031;-75
2023/08/05 03:20:45;;;;;;;10.93;9.07;;;;;;;12.35;100.00;101397.34;5063104;28;20039;-75
2023/08/05 03:23:10;;;;;;;13.15;9.82;;;;;;;12.40;100.00;101398.41;5055128;28;20103;-75
2023/08/05 03:25:36;;;;;;;12.30;9.27;;;;;;;12.42;100.00;101385.56;5046897;28;20017;-76
2023/08/05 03:28:01;;;;;;;12.30;9.55;;;;;;;12.42;100.00;101390.97;5046165;28;20028;-76
2023/08/05 03:30:27;;;;;;;11.15;8.98;;;;;;;12.43;100.00;101383.69;5052687;28;20024;-76
2023/08/05 03:32:52;;;;;;;9.32;8.20;;;;;;;12.44;100.00;101388.06;5052120;28;20036;-76
2023/08/05 03:35:17;;;;;;;10.52;8.63;;;;;;;12.43;100.00;101387.22;5056302;28;20032;-76
2023/08/05 03:37:48;;;;;;;10.93;9.25;;;;;;;12.43;100.00;101391.78;5051510;28;20058;-75
2023/08/05 03:40:14;;;;;;;11.77;9.35;;;;;;;12.46;100.00;101390.53;5039759;28;20086;-75
2023/08/05 03:42:40;;;;;;;12.48;9.25;;;;;;;12.48;100.00;101394.72;5056687;28;20105;-76
2023/08/05 03:45:06;;;;;;;11.77;9.05;;;;;;;12.51;100.00;101386.25;5053212;28;20119;-76
2023/08/05 03:47:32;;;;;;;12.18;10.02;;;;;;;12.55;100.00;101383.97;5051889;28;20488;-75
2023/08/05 03:49:57;;;;;;;15.30;10.50;;;;;;;12.55;100.00;101387.50;5052200;28;20100;-76
2023/08/05 03:52:24;;;;;;;13.48;9.73;;;;;;;12.58;100.00;101384.41;5045812;28;20064;-76
2023/08/05 03:54:51;;;;;;;11.77;9.02;;;;;;;12.61;100.00;101377.81;5041309;28;20029;-76
2023/08/05 03:57:16;;;;;;;12.07;9.07;;;;;;;12.63;100.00;101380.28;5016535;28;20044;-75
2023/08/05 03:59:41;;;;;;;13.20;9.30;;;;;;;12.65;100.00;101375.53;5048860;28;20025;-76
2023/08/05 04:02:07;;;;;;;11.70;9.15;;;;;;;12.68;100.00;101372.44;5041010;28;20074;-75
2023/08/05 04:04:32;;;;;;;13.88;9.75;;;;;;;12.70;100.00;101368.50;5052277;28;20066;-75
2023/08/05 04:07:00;;;;;;;13.25;9.13;;;;;;;12.73;100.00;101372.66;5062731;28;20056;-75
2023/08/05 04:09:26;;;;;;;13.10;9.10;;;;;;;12.77;100.00;101359.59;5065230;28;20029;-75
2023/08/05 04:11:53;;;;;;;13.27;9.25;;;;;;;12.79;100.00;101358.38;5047224;28;20021;-76
2023/08/05 04:14:20;;;;;;;10.10;8.10;;;;;;;12.82;100.00;101357.13;5049795;28;20036;-75
2023/08/05 04:16:47;;;;;;;11.27;8.13;;;;;;;12.82;100.00;101349.88;5054266;28;20481;-76
2023/08/05 04:19:14;;;;;;;12.60;7.72;;;;;;;12.84;100.00;101337.00;5040462;28;20029;-75
2023/08/05 04:21:45;;;;;;;10.82;7.50;;;;;;;12.86;100.00;101331.38;5060214;28;20541;-75
2023/08/05 04:24:12;;;;;;;8.88;7.38;;;;;;;12.97;100.00;101343.47;5041164;28;20080;-76
2023/08/05 04:26:37;;;;;;;9.85;7.60;;;;;;;12.92;100.00;101333.28;5043685;28;20041;-75
2023/08/05 04:29:02;;;;;;;12.85;7.60;;;;;;;12.88;100.00;101334.72;5065543;28;20027;-76
2023/08/05 04:31:28;;;;;;;11.27;7.82;;;;;;;12.88;100.00;101340.94;5054322;28;20432;-75
2023/08/05 04:33:53;;;;;;;10.63;8.18;;;;;;;12.91;100.00;101333.47;5045853;28;20053;-75
2023/08/05 04:36:19;;;;;;;10.75;8.85;;;;;;;12.94;100.00;101335.78;5052914;28;20396;-76
2023/08/05 04:38:44;;;;;;;10.73;8.95;;;;;;;12.97;100.00;101330.78;5053138;28;20025;-75
2023/08/05 04:41:10;;;;;;;12.30;9.00;;;;;;;13.02;100.00;101324.81;5061246;28;20033;-76
2023/08/05 04:43:36;;;;;;;9.07;8.07;;;;;;;13.09;100.00;101324.81;5055446;28;20033;-76
2023/08/05 04:46:01;;;;;;;12.13;8.63;;;;;;;13.13;100.00;101326.91;5062883;28;20021;-76
2023/08/05 04:48:26;;;;;;;11.02;8.77;;;;;;;13.22;100.00;101324.88;5048685;28;20110;-75
2023/08/05 04:50:52;;;;;;;10.77;8.45;;;;;;;13.29;100.00;101319.47;5055703;28;20028;-76
2023/08/05 04:53:17;;;;;;;10.82;8.52;;;;;;;13.28;100.00;101317.81;5044459;28;20151;-76
2023/08/05 04:55:43;;;;;;;10.25;8.73;;;;;;;13.37;100.00;101322.00;5059594;28;20707;-76
2023/08/05 04:58:08;;;;;;;10.60;8.43;;;;;;;13.40;100.00;101318.94;5050495;28;20032;-76
2023/08/05 05:00:34;;;;;;;12.35;8.70;;;;;;;13.51;100.00;101322.06;5054977;28;20049;-76
2023/08/05 05:02:59;;;;;;;11.02;8.95;;;;;;;13.57;100.00;101321.25;5052496;28;20033;-76
2023/08/05 05:05:25;;;;;;;12.05;9.00;;;;;;;13.68;100.00;101328.75;5058114;28;20136;-76
2023/08/05 05:07:50;;;;;;;10.95;8.68;;;;;;;13.74;100.00;101313.56;5049503;28;20396;-76
2023/08/05 05:10:17;;;;;;;9.55;8.20;;;;;;;13.88;100.00;101312.53;5060054;28;20035;-75
2023/08/05 05:12:42;;;;;;;10.63;7.75;;;;;;;13.95;100.00;101299.84;5055918;28;20025;-75
2023/08/05 05:15:08;;;;;;;11.45;7.95;;;;;;;13.96;100.00;101297.94;5051330;28;20029;-76
2023/08/05 05:17:34;;;;;;;12.30;8.02;;;;;;;14.02;100.00;101297.13;5050440;28;20044;-75
2023/08/05 05:20:00;;;;;;;11.35;7.68;;;;;;;14.14;100.00;101301.91;5043053;28;20025;-75
2023/08/05 05:22:25;;;;;;;9.55;7.68;;;;;;;14.29;100.00;101297.13;5056176;28;20047;-75
2023/08/05 05:24:51;;;;;;;10.75;7.78;;;;;;;14.31;100.00;101295.00;5049497;28;20077;-74
2023/08/05 05:27:17;;;;;;;9.23;7.80;;;;;;;14.40;100.00;101295.59;5052866;28;20349;-77
2023/08/05 05:29:43;;;;;;;13.40;7.88;;;;;;;14.48;100.00;101294.53;5040113;28;20064;-77
2023/08/05 05:32:09;;;;;;;12.40;8.57;;;;;;;14.40;100.00;101277.50;5053872;28;20069;-78
2023/08/05 05:34:34;;;;;;;10.23;7.47;;;;;;;14.48;100.00;101283.72;5056819;28;20068;-80
2023/08/05 05:37:00;;;;;;;11.05;7.60;;;;;;;14.47;100.00;101282.06;5055604;28;20027;-77
2023/08/05 05:39:25;;;;;;;10.65;8.63;;;;;;;14.51;100.00;101280.59;5055835;28;20033;-77
2023/08/05 05:41:50;;;;;;;9.95;7.10;;;;;;;14.63;100.00;101287.03;5054402;28;20435;-76
2023/08/05 05:44:16;;;;;;;8.70;7.05;;;;;;;14.69;100.00;101291.59;5046118;28;20033;-77
2023/08/05 05:46:43;;;;;;;9.88;7.93;;;;;;;14.76;100.00;101298.91;5039853;28;20032;-78
2023/08/05 05:49:10;;;;;;;10.52;7.78;;;;;;;14.78;100.00;101296.81;5053548;28;20102;-77
2023/08/05 05:51:35;;;;;;;12.18;8.18;;;;;;;14.74;100.00;101300.97;5048152;28;20025;-78
2023/08/05 05:54:00;;;;;;;10.23;8.18;;;;;;;14.79;100.00;101290.34;5056022;28;20024;-77
2023/08/05 05:56:26;;;;;;;9.52;7.97;;;;;;;14.63;100.00;101287.03;5054791;28;20618;-76
2023/08/05 05:58:51;;;;;;;10.93;7.78;;;;;;;14.60;100.00;101284.75;5043925;28;20041;-76
2023/08/05 06:01:17;;;;;;;9.63;7.78;;;;;;;14.64;100.00;101283.28;5044853;28;20017;-77
2023/08/05 06:03:42;;;;;;;11.55;7.63;;;;;;;14.62;100.00;101285.38;5049717;28;20095;-77
2023/08/05 06:06:08;;;;;;;10.43;8.05;;;;;;;14.66;100.00;101286.56;5043914;28;20048;-77
2023/08/05 06:08:36;;;;;;;7.65;6.70;;;;;;;14.68;100.00;101289.13;5043824;28;20029;-77
2023/08/05 06:11:06;;;;;;;9.63;7.50;;;;;;;14.61;100.00;101289.13;5049086;28;20464;-79
2023/08/05 06:13:34;;;;;;;10.20;7.63;;;;;;;14.60;100.00;101281.19;5047993;28;20299;-78
2023/08/05 06:16:00;;;;;;;8.35;6.93;;;;;;;14.76;100.00;101296.19;5058131;28;20039;-78
2023/08/05 06:18:26;;;;;;;8.20;6.47;;;;;;;14.87;100.00;101284.66;5030752;28;20021;-78
2023/08/05 06:20:51;;;;;;;8.20;6.97;;;;;;;15.03;100.00;101296.91;5045258;28;20080;-78
2023/08/05 06:23:16;;;;;;;9.65;7.10;;;;;;;15.19;98.80;101294.75;5051089;28;20033;-78
2023/08/05 06:25:42;;;;;;;8.90;6.57;;;;;;;15.36;98.22;101295.88;5053175;28;20021;-80
2023/08/05 06:28:08;;;;;;;11.90;6.28;;;;;;;15.59;96.10;101298.03;5037448;28;20166;-77
2023/08/05 06:30:34;;;;;;;9.82;6.72;;;;;;;15.54;96.67;101302.47;5040480;28;20091;-78
2023/08/05 06:33:02;;;;;;;7.95;5.95;;;;;;;15.54;96.84;101300.56;5030331;28;20693;-80
2023/08/05 06:35:28;;;;;;;9.35;6.10;;;;;;;15.49;96.22;101294.97;5047743;28;20020;-80
2023/08/05 06:37:56;;;;;;;8.32;6.13;;;;;;;15.52;95.69;101294.53;5045400;28;20091;-80
2023/08/05 06:40:21;;;;;;;8.45;6.68;;;;;;;15.53;96.26;101289.94;5035389;28;20025;-75
2023/08/05 06:42:47;;;;;;;8.45;6.30;;;;;;;15.46;95.93;101295.41;5034271;28;20029;-77
2023/08/05 06:45:13;;;;;;;6.85;5.72;;;;;;;15.69;95.14;101300.25;5044059;28;20046;-82
2023/08/05 06:47:38;;;;;;;10.05;5.82;;;;;;;15.82;94.86;101296.63;5036180;28;20425;-78
2023/08/05 06:50:06;;;;;;;9.20;6.15;;;;;;;16.05;92.77;101296.03;5042733;28;20037;-78
2023/08/05 06:52:32;;;;;;;8.35;5.68;;;;;;;16.24;90.52;101296.06;5050465;28;20024;-77
2023/08/05 06:55:02;;;;;;;8.30;6.05;;;;;;;16.23;91.41;101282.72;5051466;28;20037;-78
2023/08/05 06:57:27;;;;;;;7.07;6.22;;;;;;;16.28;90.50;101285.56;5039666;28;20025;-78
2023/08/05 06:59:53;;;;;;;8.68;5.72;;;;;;;16.57;90.35;101283.19;5042097;28;20132;-77
2023/08/05 07:02:24;;;;;;;9.02;6.70;;;;;;;16.70;88.16;101271.31;5035677;28;20028;-78
2023/08/05 07:04:52;;;;;;;8.60;5.65;;;;;;;17.04;87.32;101288.91;5047388;28;20231;-77
2023/08/05 07:07:18;;;;;;;8.05;5.97;;;;;;;17.15;84.81;101278.31;5050223;28;20041;-78
2023/08/05 07:09:43;;;;;;;7.53;5.90;;;;;;;17.28;84.92;101278.13;5037069;28;20111;-77
2023/08/05 07:12:09;;;;;;;7.32;5.78;;;;;;;17.40;84.23;101268.09;5045808;28;20037;-78
2023/08/05 07:14:34;;;;;;;8.82;6.57;;;;;;;17.56;83.31;101273.94;5058853;28;20028;-77
2023/08/05 07:17:02;;;;;;;8.95;5.93;;;;;;;17.67;84.02;101275.03;5038304;28;20280;-78
2023/08/05 07:19:27;;;;;;;9.32;6.28;;;;;;;17.65;83.20;101261.63;5048094;28;20108;-78
2023/08/05 07:21:53;;;;;;;9.80;6.88;;;;;;;17.61;83.39;101249.56;5049263;28;20046;-76
2023/08/05 07:24:18;;;;;;;8.88;6.50;;;;;;;17.93;82.30;101251.97;5052442;28;20036;-76
2023/08/05 07:26:44;;;;;;;7.88;6.20;;;;;;;18.29;81.15;101257.41;5059726;28;20025;-78
2023/08/05 07:29:15;;;;;;;11.60;7.40;;;;;;;18.61;78.95;101255.09;5061304;22;20694;-78
2023/08/05 07:31:40;;;;;;;7.68;6.88;;;;;;;19.19;75.80;101257.91;5055661;28;20031;-78
2023/08/05 07:34:07;;;;;;;8.98;6.30;;;;;;;19.68;74.96;101248.34;5069429;28;20041;-77
2023/08/05 07:36:33;;;;;;;11.30;7.38;;;;;;;20.36;71.79;101242.78;5057158;28;20440;-80
2023/08/05 07:39:06;;;;;;;10.57;6.68;;;;;;;22.44;63.94;101240.84;5060527;28;20020;-76
2023/08/05 07:41:31;;;;;;;8.55;6.47;;;;;;;23.16;61.78;101246.53;5062774;28;20128;-78
2023/08/05 07:43:58;;;;;;;9.20;6.45;;;;;;;23.89;58.98;101239.16;5058842;28;20016;-77
2023/08/05 07:46:25;;;;;;;8.82;6.35;;;;;;;23.32;59.09;101232.84;5043657;28;20247;-77
2023/08/05 07:48:52;;;;;;;7.88;6.38;;;;;;;23.42;58.46;101232.03;5069884;28;20025;-77
2023/08/05 07:51:19;;;;;;;10.73;6.68;;;;;;;23.52;58.27;101231.19;5070448;28;20152;-78
2023/08/05 07:53:47;;;;;;;8.40;6.63;;;;;;;22.78;59.63;101234.91;5072979;28;20040;-77
2023/08/05 07:56:15;;;;;;;9.52;6.80;;;;;;;22.52;61.21;101225.78;5082170;28;20058;-77
2023/08/05 07:58:46;;;;;;;9.82;7.45;;;;;;;23.20;59.18;101221.28;5077812;28;20076;-77
2023/08/05 08:01:21;;;;;;;7.88;6.72;;;;;;;24.36;55.32;101220.59;5072211;28;20020;-77
2023/08/05 08:03:48;;;;;;;8.68;7.07;;;;;;;24.30;54.30;101223.63;5062048;28;20021;-77
2023/08/05 08:06:15;;;;;;;12.30;7.57;;;;;;;24.02;54.32;101215.75;5048944;28;20024;-78
2023/08/05 08:08:44;;;;;;;11.65;7.43;;;;;;;23.52;55.72;101212.81;5028767;28;20099;-77
2023/08/05 08:11:10;;;;;;;10.43;7.00;;;;;;;22.90;57.40;101215.47;5067576;28;20028;-77
2023/08/05 08:13:36;;;;;;;8.82;7.22;;;;;;;22.07;60.06;101208.81;5039988;28;20033;-78
2023/08/05 08:16:02;;;;;;;7.80;6.55;;;;;;;21.56;62.20;101214.78;5059400;28;20033;-77
2023/08/05 08:18:27;;;;;;;10.10;6.60;;;;;;;21.06;64.37;101209.41;5057725;28;20032;-78
2023/08/05 08:20:53;;;;;;;8.80;7.13;;;;;;;20.33;67.04;101199.53;5058517;28;20314;-77
2023/08/05 08:23:18;;;;;;;10.07;6.07;;;;;;;20.47;65.65;101210.94;5066116;28;20090;-77
2023/08/05 08:25:43;;;;;;;7.47;5.93;;;;;;;20.70;66.16;101204.34;5060560;28;20021;-77
2023/08/05 08:28:09;;;;;;;8.65;5.78;;;;;;;20.52;66.41;101201.97;5049604;28;20384;-77
2023/08/05 08:30:37;;;;;;;7.80;5.45;;;;;;;20.26;66.54;101205.19;5066178;28;20484;-77
2023/08/05 08:33:03;;;;;;;8.13;6.20;;;;;;;20.12;67.22;101193.81;5066195;28;20035;-77
2023/08/05 08:35:34;;;;;;;7.20;5.78;;;;;;;20.28;66.81;101185.84;5057355;28;20028;-77
2023/08/05 08:38:00;;;;;;;7.97;5.32;;;;;;;20.88;65.01;101185.97;5058209;28;20195;-77
2023/08/05 08:40:25;;;;;;;6.32;5.65;;;;;;;21.20;65.09;101182.44;5057449;28;20028;-77
2023/08/05 08:42:51;;;;;;;6.07;4.80;;;;;;;21.28;62.31;101179.22;5056425;28;20029;-77
2023/08/05 08:45:16;;;;;;;5.50;4.80;;;;;;;21.01;62.75;101174.59;5023902;28;20460;-78
2023/08/05 08:47:42;;;;;;;5.65;4.80;;;;;;;21.19;62.81;101169.81;5023582;28;20025;-78
2023/08/05 08:50:07;;;;;;;6.55;5.00;;;;;;;21.65;60.97;101158.41;5065608;28;20032;-78
2023/08/05 08:52:33;;;;;;;7.20;4.90;;;;;;;21.78;60.40;101157.13;5046425;28;20063;-78
2023/08/05 08:54:58;;;;;;;5.03;4.55;;;;;;;22.05;58.98;101147.97;5047645;28;20115;-78
2023/08/05 08:57:24;;;;;;;5.90;4.57;;;;;;;22.15;59.87;101138.97;5037774;28;20020;-78
2023/08/05 08:59:49;;;;;;;5.18;4.18;;;;;;;22.02;59.04;101132.03;5029180;28;20462;-78
2023/08/05 09:02:26;;;;;;;4.20;3.80;;;;;;;21.81;57.70;101132.75;5060256;28;20056;-79
2023/08/05 09:04:53;;;;;;;5.75;3.75;;;;;;;22.73;54.91;101136.13;5062462;28;20391;-78
2023/08/05 09:07:18;;;;;;;5.00;3.90;;;;;;;23.09;52.35;101124.31;5060382;28;20017;-80
2023/08/05 09:09:47;;;;;;;6.82;4.13;;;;;;;23.62;50.61;101132.28;5026469;28;20619;-80
2023/08/05 09:12:14;;;;;;;3.95;3.60;;;;;;;23.89;51.06;101118.16;5050751;28;20025;-80
2023/08/05 09:14:39;;;;;;;6.60;3.83;;;;;;;24.90;47.08;101113.50;5032570;28;20083;-77
2023/08/05 09:17:05;;;;;;;4.70;3.38;;;;;;;25.17;47.74;101120.44;5052468;28;20040;-78
2023/08/05 09:19:30;;;;;;;5.47;3.78;;;;;;;25.46;47.28;101119.63;5046845;28;20052;-77
2023/08/05 09:21:58;;;;;;;5.25;4.22;;;;;;;25.36;47.21;101116.97;5066245;28;20116;-77
2023/08/05 09:24:23;;;;;;;6.80;4.13;;;;;;;25.40;47.21;101123.53;5021817;28;20195;-79
2023/08/05 09:26:56;;;;;;;6.85;4.20;;;;;;;25.21;48.30;101109.66;5065030;28;20130;-77
2023/08/05 09:29:21;;;;;;;6.05;4.15;;;;;;;24.51;48.71;101111.56;5064069;28;20037;-77
2023/08/05 09:32:00;;;;;;;6.60;3.63;;;;;;;23.80;50.91;101103.34;5031276;28;20056;-77
2023/08/05 09:34:35;;;;;;;5.18;4.18;;;;;;;23.41;51.74;101107.56;5051603;28;20069;-76
2023/08/05 09:37:01;;;;;;;4.20;3.80;;;;;;;23.59;52.24;101094.34;5053479;28;20466;-78
2023/08/05 09:39:30;;;;;;;5.90;3.92;;;;;;;22.98;53.14;101090.56;5059832;28;20085;-78
2023/08/05 09:41:56;;;;;;;6.20;3.58;;;;;;;22.84;53.66;101085.63;5044100;28;20025;-78
2023/08/05 09:44:21;;;;;;;5.57;3.15;;;;;;;22.90;51.77;101083.69;5054453;28;20115;-77
2023/08/05 09:46:47;;;;;;;4.47;2.58;;;;;;;23.14;49.61;101083.94;5061052;28;20028;-78
2023/08/05 09:49:14;;;;;;;3.30;2.63;;;;;;;23.89;47.21;101073.34;5025945;28;20556;-77
2023/08/05 09:51:43;;;;;;;3.55;2.40;;;;;;;23.86;48.45;101076.66;5058829;28;20443;-76
2023/08/05 09:54:11;;;;;;;3.35;2.00;;;;;;;23.86;48.13;101071.97;5055705;28;20531;-76
2023/08/05 09:56:37;;;;;;;2.05;1.80;;;;;;;23.51;48.67;101075.66;5025366;28;20033;-76
2023/08/05 09:59:03;;;;;;;3.50;2.10;;;;;;;23.77;47.43;101062.66;5043725;28;20033;-77
2023/08/05 10:01:28;;;;;;;3.35;2.13;;;;;;;24.38;46.86;101063.47;5041678;28;20032;-76
2023/08/05 10:03:53;;;;;;;4.50;2.13;;;;;;;25.17;44.58;101059.81;5042752;28;20021;-77
2023/08/05 10:06:19;;;;;;;3.40;2.20;;;;;;;25.25;44.09;101050.09;5029147;28;20476;-77
2023/08/05 10:08:44;;;;;;;4.82;2.30;;;;;;;25.16;45.03;101047.16;5059576;28;20901;-77
2023/08/05 10:11:10;;;;;;;2.10;1.90;;;;;;;24.29;46.81;101044.00;5053129;28;20025;-76
2023/08/05 10:13:37;;;;;;;4.18;2.20;;;;;;;23.96;48.30;101038.13;5031006;28;20033;-75
2023/08/05 10:16:03;;;;;;;2.63;2.25;;;;;;;24.20;48.33;101037.44;5023251;28;20025;-76
2023/08/05 10:18:28;;;;;;;3.30;1.98;;;;;;;25.34;45.82;101042.81;5033800;28;20028;-76
2023/08/05 10:20:54;;;;;;;2.75;2.10;;;;;;;25.66;43.09;101037.81;5059941;28;20047;-76
2023/08/05 10:23:20;;;;;;;2.20;2.00;;;;;;;26.78;41.43;101034.53;5046261;28;20345;-77
2023/08/05 10:25:47;;;;;;;4.07;2.00;;;;;;;27.41;40.72;101034.25;5022180;28;20372;-78
2023/08/05 10:28:27;;;;;;;2.33;2.00;;;;;;;27.94;38.28;101024.56;5058780;28;20722;-78
2023/08/05 10:30:56;;;;;;;2.22;1.83;;;;;;;27.77;38.02;101010.56;5054954;28;20052;-78
2023/08/05 10:33:21;;;;;;;2.28;1.55;;;;;;;28.07;37.04;101017.34;5055790;28;20032;-78
2023/08/05 10:35:49;;;;;;;1.60;1.50;;;;;;;27.14;37.54;101019.25;5059751;28;20028;-78
2023/08/05 10:38:22;;;;;;;3.17;1.80;;;;;;;26.12;40.12;100995.81;5057923;28;20033;-77
2023/08/05 10:40:48;;;;;;;1.73;1.63;;;;;;;26.15;41.02;101005.47;5068252;28;20044;-77
2023/08/05 10:43:31;;;;;;;3.15;1.92;;;;;;;26.39;40.04;101012.81;5047323;28;20037;-78
2023/08/05 10:46:01;;;;;;;2.13;1.92;;;;;;;26.23;41.57;101006.72;5060362;28;20024;-78
2023/08/05 10:48:30;;;;;;;2.35;2.10;;;;;;;25.72;41.69;100995.28;5060185;28;20028;-78
2023/08/05 10:50:56;;;;;;;2.40;1.80;;;;;;;26.13;40.11;100993.91;5069064;28;20472;-77
2023/08/05 10:53:21;;;;;;;2.20;2.00;;;;;;;25.55;41.25;100984.75;5065780;28;20123;-77
2023/08/05 10:55:47;;;;;;;3.47;1.67;;;;;;;25.56;42.21;100967.91;5071366;28;20555;-78
2023/08/05 10:58:13;;;;;;;2.75;2.03;;;;;;;25.73;43.08;100978.44;5068405;28;20058;-78
2023/08/05 11:00:45;;;;;;;2.00;1.80;;;;;;;25.97;42.17;100976.72;5054896;28;20540;-77
2023/08/05 11:03:25;;;;;;;2.35;1.83;;;;;;;26.79;40.62;100971.81;5060205;28;20073;-77
2023/08/05 11:05:53;;;;;;;2.17;1.73;;;;;;;26.65;39.36;100971.81;5062703;28;20116;-78
2023/08/05 11:08:20;;;;;;;3.20;1.83;;;;;;;27.33;39.08;100961.13;5060739;28;20051;-78
2023/08/05 11:10:46;;;;;;;3.97;2.20;;;;;;;27.13;37.60;100951.31;5060772;28;20140;-78
2023/08/05 11:13:11;;;;;;;2.45;1.90;;;;;;;27.21;39.04;100952.53;5029697;28;20024;-77